Time;durP1;ratioP1;P1;durP2;ratioP2;P2;SDS_P1;SDS_P2;PMS_P1;PMS_P2;Temp;Humidity;BMP_temperature;BMP_pressure;BME280_temperature;BME280_humidity;BME280_pressure;Samples;Min_cycle;Max_cycle;Signal;HPM_P1;HPM_P2
2023/10/08 00:00:39;;;;;;;0.70;0.47;;;15.00;99.90;;;;;;4968518;28;20043;-61
2023/10/08 00:02:50;;;;;;;0.40;0.28;;;14.90;99.90;;;;;;4969535;28;20051;-61
2023/10/08 00:05:17;;;;;;;0.60;0.30;;;14.70;99.90;;;;;;4968756;28;20058;-61
2023/10/08 00:07:43;;;;;;;0.30;0.20;;;14.60;99.90;;;;;;4969273;28;20073;-61
2023/10/08 00:10:09;;;;;;;0.80;0.30;;;14.50;99.90;;;;;;4954816;28;20050;-61
2023/10/08 00:12:35;;;;;;;0.43;0.20;;;14.50;99.90;;;;;;4950430;28;20051;-61
2023/10/08 00:15:00;;;;;;;6.05;0.32;;;14.40;99.90;;;;;;4950206;28;20055;-61
2023/10/08 00:17:26;;;;;;;1.25;0.22;;;14.40;99.90;;;;;;4950009;29;20514;-61
2023/10/08 00:19:52;;;;;;;0.45;0.20;;;14.30;99.90;;;;;;4950267;29;20042;-61
2023/10/08 00:22:19;;;;;;;1.13;0.20;;;14.30;99.90;;;;;;4948120;28;20122;-61
2023/10/08 00:24:46;;;;;;;0.30;0.25;;;14.20;99.90;;;;;;4945896;29;20051;-61
2023/10/08 00:27:14;;;;;;;0.20;0.10;;;14.20;99.90;;;;;;4949517;29;20049;-61
2023/10/08 00:29:43;;;;;;;0.30;0.20;;;14.10;99.90;;;;;;4949784;29;20137;-61
2023/10/08 00:32:12;;;;;;;0.55;0.22;;;14.10;99.90;;;;;;4949505;29;20050;-61
2023/10/08 00:34:41;;;;;;;0.10;0.10;;;14.10;99.90;;;;;;4949201;29;20085;-61
2023/10/08 00:37:13;;;;;;;0.20;0.10;;;14.00;99.90;;;;;;4949824;29;20043;-61
2023/10/08 00:39:40;;;;;;;0.68;0.30;;;14.00;99.90;;;;;;4949722;29;20096;-61
2023/10/08 00:42:07;;;;;;;0.43;0.10;;;14.00;99.90;;;;;;4932714;29;20045;-61
2023/10/08 00:44:39;;;;;;;0.75;0.28;;;13.90;99.90;;;;;;4947932;29;20097;-62
2023/10/08 00:47:06;;;;;;;1.42;0.77;;;13.90;99.90;;;;;;4949924;28;20480;-61
2023/10/08 00:49:47;;;;;;;1.08;0.85;;;13.90;99.90;;;;;;4949352;29;20043;-61
2023/10/08 00:57:21;;;;;;;0.55;0.32;;;13.80;99.90;;;;;;4949204;29;20054;-61
2023/10/08 00:59:55;;;;;;;1.35;0.43;;;13.80;99.90;;;;;;4950565;28;20446;-61
2023/10/08 01:02:28;;;;;;;0.63;0.20;;;13.80;99.90;;;;;;4932854;29;20105;-61
2023/10/08 01:04:55;;;;;;;0.13;0.10;;;13.70;99.90;;;;;;4948194;29;20051;-61
2023/10/08 01:07:23;;;;;;;0.88;0.55;;;13.70;99.90;;;;;;4948571;29;20047;-61
2023/10/08 01:09:59;;;;;;;1.75;0.35;;;13.70;99.90;;;;;;4949160;28;20043;-61
2023/10/08 01:14:54;;;;;;;0.03;0.03;;;13.80;99.90;;;;;;4948438;29;20109;-61
2023/10/08 01:17:26;;;;;;;0.95;0.50;;;13.80;99.90;;;;;;4949123;29;20043;-62
2023/10/08 01:20:00;;;;;;;0.68;0.20;;;13.70;99.90;;;;;;4950271;28;20067;-62
2023/10/08 01:22:29;;;;;;;0.08;0.08;;;13.70;99.90;;;;;;4945451;28;20086;-61
2023/10/08 01:24:55;;;;;;;0.35;0.20;;;13.70;99.90;;;;;;4918315;29;20047;-61
2023/10/08 01:27:24;;;;;;;0.50;0.20;;;13.70;99.90;;;;;;4913829;29;20051;-61
2023/10/08 01:29:51;;;;;;;0.30;0.30;;;13.70;99.90;;;;;;4928987;29;20043;-61
2023/10/08 01:32:22;;;;;;;0.25;0.22;;;13.60;99.90;;;;;;4929320;28;20315;-61
2023/10/08 01:34:49;;;;;;;0.47;0.25;;;13.60;99.90;;;;;;4930484;28;20050;-61
2023/10/08 01:37:19;;;;;;;0.30;0.20;;;13.60;99.90;;;;;;4929190;29;20554;-61
2023/10/08 01:39:50;;;;;;;0.47;0.17;;;13.60;99.90;;;;;;4945435;29;20075;-61
2023/10/08 01:42:18;;;;;;;0.30;0.10;;;13.60;99.90;;;;;;4945113;29;20059;-61
2023/10/08 01:44:54;;;;;;;0.73;0.20;;;13.60;99.90;;;;;;4913553;29;20044;-61
2023/10/08 01:47:20;;;;;;;0.15;0.10;;;13.60;99.90;;;;;;4930190;29;20440;-61
2023/10/08 01:49:46;;;;;;;0.88;0.30;;;13.60;99.90;;;;;;4932984;28;20136;-61
2023/10/08 01:52:17;;;;;;;0.52;0.20;;;13.60;99.90;;;;;;4947099;28;20085;-61
2023/10/08 01:54:44;;;;;;;0.77;0.10;;;13.60;99.90;;;;;;4947915;29;20044;-61
2023/10/08 01:57:12;;;;;;;0.43;0.17;;;13.60;99.90;;;;;;4947604;29;20036;-61
2023/10/08 01:59:38;;;;;;;0.30;0.17;;;13.60;99.90;;;;;;4948341;29;20114;-61
2023/10/08 02:02:05;;;;;;;1.08;0.22;;;13.60;99.90;;;;;;4948091;29;20043;-61
2023/10/08 02:04:37;;;;;;;0.10;0.10;;;13.60;99.90;;;;;;4947745;29;20051;-61
2023/10/08 02:07:04;;;;;;;0.25;0.17;;;13.60;99.90;;;;;;4947973;28;20383;-61
2023/10/08 02:09:33;;;;;;;0.75;0.30;;;13.60;99.90;;;;;;4931689;29;20039;-61
2023/10/08 02:11:58;;;;;;;0.57;0.57;;;13.60;99.90;;;;;;4947549;29;20134;-61
2023/10/08 02:14:24;;;;;;;0.40;0.10;;;13.60;99.90;;;;;;4949208;28;20047;-61
2023/10/08 02:16:55;;;;;;;0.10;0.10;;;13.60;99.90;;;;;;4947940;29;20480;-61
2023/10/08 02:19:26;;;;;;;0.10;0.10;;;13.60;99.90;;;;;;4947601;29;20574;-61
2023/10/08 02:21:57;;;;;;;0.40;0.20;;;13.60;99.90;;;;;;4946478;28;20051;-61
2023/10/08 02:24:24;;;;;;;0.20;0.10;;;13.50;99.90;;;;;;4941772;28;20086;-61
2023/10/08 02:26:54;;;;;;;0.10;0.10;;;13.60;99.90;;;;;;4928192;29;20047;-61
2023/10/08 02:29:26;;;;;;;0.20;0.10;;;13.60;99.90;;;;;;4928447;29;20091;-61
2023/10/08 02:31:55;;;;;;;0.50;0.30;;;13.60;99.90;;;;;;4954556;28;20094;-61
2023/10/08 02:34:21;;;;;;;0.10;0.10;;;13.60;99.90;;;;;;4947918;28;20070;-61
2023/10/08 02:36:46;;;;;;;1.17;0.50;;;13.60;99.90;;;;;;4931618;29;20043;-61
2023/10/08 02:39:13;;;;;;;0.60;0.43;;;13.60;99.90;;;;;;4948361;28;20035;-61
2023/10/08 02:41:45;;;;;;;1.00;0.10;;;13.60;99.90;;;;;;4947809;28;20086;-61
2023/10/08 02:44:15;;;;;;;0.40;0.20;;;13.50;99.90;;;;;;4947178;29;20055;-61
2023/10/08 02:46:44;;;;;;;0.50;0.20;;;13.50;99.90;;;;;;4946899;29;20043;-61
2023/10/08 02:49:11;;;;;;;0.30;0.10;;;13.50;99.90;;;;;;4931470;29;20085;-61
2023/10/08 02:51:41;;;;;;;0.20;0.20;;;13.50;99.90;;;;;;4947296;29;20097;-61
2023/10/08 02:54:17;;;;;;;0.22;0.17;;;13.50;99.90;;;;;;4934457;29;20039;-61
2023/10/08 02:56:45;;;;;;;1.25;0.43;;;13.50;99.90;;;;;;4928339;29;20428;-61
2023/10/08 02:59:12;;;;;;;0.40;0.20;;;13.40;99.90;;;;;;4944670;29;20130;-61
2023/10/08 03:01:42;;;;;;;0.60;0.22;;;13.40;99.90;;;;;;4930823;29;20039;-61
2023/10/08 03:04:17;;;;;;;0.13;0.10;;;13.40;99.90;;;;;;4948107;29;20414;-61
2023/10/08 03:06:50;;;;;;;1.25;0.50;;;13.40;99.90;;;;;;4947761;29;20051;-61
2023/10/08 03:09:23;;;;;;;0.50;0.30;;;13.40;99.90;;;;;;4948194;28;20043;-61
2023/10/08 03:11:51;;;;;;;2.08;0.28;;;13.40;99.90;;;;;;4946476;29;20075;-61
2023/10/08 03:14:23;;;;;;;0.63;0.32;;;13.40;99.90;;;;;;4946792;29;20035;-61
2023/10/08 03:16:54;;;;;;;1.48;0.30;;;13.30;99.90;;;;;;4947149;29;20035;-61
2023/10/08 03:19:24;;;;;;;0.57;0.32;;;13.30;99.90;;;;;;4947567;29;20048;-61
2023/10/08 03:21:51;;;;;;;0.98;0.40;;;13.30;99.90;;;;;;4946100;28;20054;-61
2023/10/08 03:24:37;;;;;;;1.45;0.40;;;13.30;99.90;;;;;;4936012;28;20043;-61
2023/10/08 03:27:20;;;;;;;0.40;0.20;;;13.30;99.90;;;;;;4930990;29;20104;-61
2023/10/08 03:29:46;;;;;;;0.55;0.35;;;13.30;99.90;;;;;;4946656;29;20451;-61
2023/10/08 03:32:15;;;;;;;0.82;0.30;;;13.30;99.90;;;;;;4932052;29;20087;-61
2023/10/08 03:34:54;;;;;;;0.50;0.30;;;13.30;99.90;;;;;;4950350;29;20495;-61
2023/10/08 03:37:29;;;;;;;0.98;0.25;;;13.30;99.90;;;;;;4934356;29;20040;-61
2023/10/08 03:40:22;;;;;;;0.43;0.20;;;13.30;99.90;;;;;;4950284;29;20043;-61
2023/10/08 03:42:49;;;;;;;0.65;0.25;;;13.30;99.90;;;;;;4951092;28;20124;-61
2023/10/08 03:45:22;;;;;;;1.35;0.50;;;13.20;99.90;;;;;;4950200;29;20134;-61
2023/10/08 03:48:05;;;;;;;0.63;0.30;;;13.20;99.90;;;;;;4950261;29;20051;-61
2023/10/08 03:50:41;;;;;;;0.60;0.35;;;13.20;99.90;;;;;;4950926;28;20062;-61
2023/10/08 03:53:13;;;;;;;2.67;0.60;;;13.20;99.90;;;;;;4945739;29;20079;-61
2023/10/08 03:55:40;;;;;;;0.55;0.30;;;13.20;99.90;;;;;;4949050;29;20097;-61
2023/10/08 03:58:13;;;;;;;1.88;0.32;;;13.20;99.90;;;;;;4949535;29;20079;-61
2023/10/08 04:00:42;;;;;;;0.95;0.40;;;13.20;99.90;;;;;;4949901;29;20051;-61
2023/10/08 04:03:11;;;;;;;1.02;0.45;;;13.10;99.90;;;;;;4949439;29;20043;-61
2023/10/08 04:05:59;;;;;;;0.80;0.35;;;13.20;99.90;;;;;;4923996;29;20079;-61
2023/10/08 04:08:42;;;;;;;0.63;0.32;;;13.20;99.90;;;;;;4931895;28;20059;-61
2023/10/08 04:11:29;;;;;;;1.08;0.70;;;13.20;99.90;;;;;;4930290;29;20044;-61
2023/10/08 04:13:55;;;;;;;1.25;0.40;;;13.20;99.90;;;;;;4914144;29;20036;-61
2023/10/08 04:16:21;;;;;;;1.45;0.30;;;13.20;99.90;;;;;;4930415;29;20070;-61
2023/10/08 04:18:50;;;;;;;2.25;0.65;;;13.20;99.90;;;;;;4931343;28;20110;-61
2023/10/08 04:21:20;;;;;;;1.13;0.45;;;13.20;99.90;;;;;;4930924;29;20055;-61
2023/10/08 04:23:52;;;;;;;0.43;0.20;;;13.20;99.90;;;;;;4940816;28;20097;-61
2023/10/08 04:26:23;;;;;;;0.85;0.40;;;13.30;99.90;;;;;;4950176;29;20047;-61
2023/10/08 04:28:57;;;;;;;0.73;0.32;;;13.20;99.90;;;;;;4949524;29;20671;-61
2023/10/08 04:31:38;;;;;;;1.98;0.50;;;13.30;99.90;;;;;;4948979;29;20043;-61
2023/10/08 04:34:21;;;;;;;0.90;0.32;;;13.30;99.90;;;;;;4949386;29;20047;-61
2023/10/08 04:36:54;;;;;;;0.55;0.30;;;13.30;99.90;;;;;;4949316;29;20050;-61
2023/10/08 04:39:31;;;;;;;0.20;0.13;;;13.30;99.90;;;;;;4950022;28;20043;-61
2023/10/08 04:41:58;;;;;;;1.80;0.65;;;13.30;99.90;;;;;;4950839;28;20092;-61
2023/10/08 04:44:25;;;;;;;0.65;0.47;;;13.30;99.90;;;;;;4948217;29;20141;-61
2023/10/08 04:46:52;;;;;;;3.00;0.47;;;13.30;99.90;;;;;;4948658;28;20058;-61
2023/10/08 04:49:28;;;;;;;1.70;0.35;;;13.30;99.90;;;;;;4948988;29;20130;-61
2023/10/08 04:52:15;;;;;;;0.43;0.30;;;13.30;99.90;;;;;;4948795;29;20039;-61
2023/10/08 04:54:51;;;;;;;2.47;0.45;;;13.30;99.90;;;;;;4916582;29;20055;-61
2023/10/08 04:57:17;;;;;;;1.63;0.60;;;13.30;99.90;;;;;;4931282;29;20050;-61
2023/10/08 04:59:46;;;;;;;1.65;0.60;;;13.30;99.90;;;;;;4930711;29;20052;-61
2023/10/08 05:02:19;;;;;;;4.20;0.52;;;13.30;99.90;;;;;;4943490;29;20043;-61
2023/10/08 05:04:56;;;;;;;0.77;0.40;;;13.30;99.90;;;;;;4949184;28;20122;-61
2023/10/08 05:10:21;;;;;;;0.95;0.45;;;13.30;99.90;;;;;;4950106;28;20158;-61
2023/10/08 05:13:01;;;;;;;1.40;0.38;;;13.30;99.90;;;;;;4948976;29;20047;-61
2023/10/08 05:15:35;;;;;;;1.60;0.32;;;13.30;99.90;;;;;;4948883;29;20201;-61
2023/10/08 05:18:23;;;;;;;1.85;0.63;;;13.30;99.90;;;;;;4948127;29;20036;-61
2023/10/08 05:28:35;;;;;;;2.30;0.35;;;13.20;99.90;;;;;;4948082;29;20040;-61
2023/10/08 05:36:35;;;;;;;1.15;0.50;;;13.20;99.90;;;;;;4948600;28;20113;-61
2023/10/08 05:39:16;;;;;;;0.43;0.30;;;13.20;99.90;;;;;;4948488;29;20112;-61
2023/10/08 05:41:51;;;;;;;2.63;0.50;;;13.20;99.90;;;;;;4948306;29;20047;-61
2023/10/08 05:59:38;;;;;;;10.48;0.88;;;13.10;99.90;;;;;;4948434;28;20569;-62
2023/10/08 06:02:27;;;;;;;0.30;0.20;;;13.10;99.90;;;;;;4948883;28;20491;-62
2023/10/08 06:05:43;;;;;;;1.40;0.30;;;13.10;99.90;;;;;;4949178;28;20121;-62
2023/10/08 06:13:16;;;;;;;2.38;0.60;;;13.10;99.90;;;;;;4949478;28;20456;-62
2023/10/08 06:15:48;;;;;;;0.88;0.45;;;13.10;99.90;;;;;;4948288;29;20054;-62
2023/10/08 06:18:18;;;;;;;0.47;0.47;;;13.10;99.90;;;;;;4947816;29;20039;-62
2023/10/08 06:20:45;;;;;;;3.83;0.40;;;13.10;99.90;;;;;;4947103;29;20050;-62
2023/10/08 06:23:15;;;;;;;0.70;0.45;;;13.10;99.90;;;;;;4941351;28;20466;-62
2023/10/08 06:25:44;;;;;;;1.20;0.40;;;13.10;99.90;;;;;;4932142;29;20604;-62
2023/10/08 06:28:11;;;;;;;0.88;0.50;;;13.10;99.90;;;;;;4947957;29;20422;-62
2023/10/08 06:30:40;;;;;;;0.38;0.20;;;13.10;99.90;;;;;;4948423;29;20141;-62
2023/10/08 06:33:07;;;;;;;0.60;0.30;;;13.10;99.90;;;;;;4947721;29;20472;-62
2023/10/08 06:35:34;;;;;;;2.38;0.45;;;13.20;99.90;;;;;;4947561;29;20043;-62
2023/10/08 06:38:01;;;;;;;1.25;0.57;;;13.20;99.90;;;;;;4947109;29;20079;-62
2023/10/08 06:43:14;;;;;;;4.55;0.80;;;13.20;99.90;;;;;;4947256;28;20090;-62
2023/10/08 06:45:44;;;;;;;0.93;0.35;;;13.20;99.90;;;;;;4943833;29;20070;-62
2023/10/08 06:48:17;;;;;;;0.82;0.43;;;13.20;99.90;;;;;;4912739;29;20047;-62
2023/10/08 06:50:44;;;;;;;2.00;0.45;;;13.20;99.90;;;;;;4929666;29;20822;-62
2023/10/08 06:53:13;;;;;;;1.73;0.60;;;13.20;99.90;;;;;;4932071;28;20050;-62
2023/10/08 06:55:41;;;;;;;1.30;0.57;;;13.20;99.90;;;;;;4947379;29;20043;-62
2023/10/08 06:58:08;;;;;;;0.93;0.30;;;13.20;99.90;;;;;;4947777;28;20618;-62
2023/10/08 07:00:39;;;;;;;2.70;0.47;;;13.20;99.90;;;;;;4947780;29;20040;-62
2023/10/08 07:03:10;;;;;;;2.42;0.63;;;13.20;99.90;;;;;;4947864;29;20047;-62
2023/10/08 07:05:40;;;;;;;1.05;0.40;;;13.20;99.90;;;;;;4946724;29;20492;-62
2023/10/08 07:08:07;;;;;;;0.80;0.60;;;13.20;99.90;;;;;;4946499;29;20051;-62
2023/10/08 07:10:36;;;;;;;1.67;0.50;;;13.30;99.90;;;;;;4947202;29;20108;-62
2023/10/08 07:13:07;;;;;;;1.05;0.55;;;13.30;99.90;;;;;;4946430;29;20043;-62
2023/10/08 07:15:38;;;;;;;1.15;0.50;;;13.30;99.90;;;;;;4948546;28;20518;-62
2023/10/08 07:18:09;;;;;;;2.78;1.00;;;13.40;99.90;;;;;;4947295;29;20129;-62
2023/10/08 07:20:38;;;;;;;5.05;0.60;;;13.40;99.90;;;;;;4946376;29;20126;-62
2023/10/08 07:23:24;;;;;;;2.60;0.45;;;13.50;99.90;;;;;;4941375;28;20471;-62
2023/10/08 07:26:10;;;;;;;0.73;0.30;;;13.50;99.90;;;;;;4946142;29;20550;-62
2023/10/08 07:28:42;;;;;;;2.90;0.50;;;13.60;99.90;;;;;;4930679;28;20117;-62
2023/10/08 07:31:16;;;;;;;2.60;0.82;;;13.60;99.90;;;;;;4931254;28;20373;-62
2023/10/08 07:33:47;;;;;;;1.35;0.73;;;13.60;99.90;;;;;;4947580;28;20045;-62
2023/10/08 07:36:18;;;;;;;2.45;0.47;;;13.60;99.90;;;;;;4946927;29;20051;-62
2023/10/08 07:38:44;;;;;;;2.92;0.50;;;13.60;99.90;;;;;;4930826;29;20118;-62
2023/10/08 07:41:14;;;;;;;5.60;0.80;;;13.60;99.90;;;;;;4947541;28;20055;-62
2023/10/08 07:43:43;;;;;;;;;;;13.60;99.90;;;;;;4948343;28;20537;-62
2023/10/08 07:46:10;;;;;;;1.50;0.52;;;13.60;99.90;;;;;;4946645;29;19964;-62
2023/10/08 07:48:36;;;;;;;2.30;0.50;;;13.70;99.90;;;;;;4946186;29;20039;-62
2023/10/08 07:51:03;;;;;;;1.13;0.40;;;13.70;99.90;;;;;;4917999;29;20484;-62
2023/10/08 07:53:37;;;;;;;1.45;0.38;;;13.70;99.90;;;;;;4943274;28;20097;-62
2023/10/08 07:56:06;;;;;;;2.80;0.43;;;13.70;99.90;;;;;;4928308;29;20400;-62
2023/10/08 07:58:36;;;;;;;1.90;0.80;;;13.80;99.90;;;;;;4928703;29;20075;-62
2023/10/08 08:01:09;;;;;;;1.70;0.40;;;13.80;99.90;;;;;;4930630;29;20085;-62
2023/10/08 08:03:39;;;;;;;1.63;0.50;;;13.80;99.90;;;;;;4946605;29;20097;-62
2023/10/08 08:06:13;;;;;;;0.82;0.60;;;13.90;99.90;;;;;;4946851;28;20132;-62
2023/10/08 08:08:39;;;;;;;2.88;0.70;;;14.00;99.90;;;;;;4947159;28;20484;-62
2023/10/08 08:11:13;;;;;;;4.38;0.68;;;14.00;99.90;;;;;;4930058;29;20488;-62
2023/10/08 08:13:42;;;;;;;1.25;0.50;;;14.10;99.90;;;;;;4946843;29;20199;-62
2023/10/08 08:16:18;;;;;;;1.35;0.40;;;14.20;99.90;;;;;;4945910;29;20485;-62
2023/10/08 08:18:45;;;;;;;0.98;0.30;;;14.20;99.90;;;;;;4946781;29;20039;-62
2023/10/08 08:21:19;;;;;;;0.88;0.50;;;14.30;99.90;;;;;;4951620;28;20059;-62
2023/10/08 08:23:49;;;;;;;0.82;0.40;;;14.40;99.90;;;;;;4944225;28;20453;-62
2023/10/08 08:26:26;;;;;;;1.75;0.30;;;14.30;99.90;;;;;;4948731;29;20101;-62
2023/10/08 08:29:01;;;;;;;0.77;0.40;;;14.30;99.90;;;;;;4948709;29;20039;-62
2023/10/08 08:31:31;;;;;;;2.38;0.43;;;14.40;99.90;;;;;;4949639;29;20055;-62
2023/10/08 08:33:59;;;;;;;;;;;14.40;99.90;;;;;;4950124;29;20120;-62
2023/10/08 08:36:27;;;;;;;0.68;0.25;;;14.50;99.90;;;;;;4948785;29;19948;-62
2023/10/08 08:38:53;;;;;;;2.60;0.50;;;14.50;99.90;;;;;;4950578;28;20499;-62
2023/10/08 08:41:20;;;;;;;1.23;0.30;;;14.60;99.90;;;;;;4949671;28;20051;-62
2023/10/08 08:43:56;;;;;;;2.58;0.82;;;14.70;99.90;;;;;;4932714;29;20134;-62
2023/10/08 08:46:27;;;;;;;4.45;0.50;;;14.70;99.90;;;;;;4943333;29;20480;-62
2023/10/08 08:48:55;;;;;;;2.78;0.50;;;14.70;99.90;;;;;;4931321;29;20047;-62
2023/10/08 08:51:23;;;;;;;1.38;0.70;;;14.80;99.90;;;;;;4943622;28;20051;-62
2023/10/08 08:53:49;;;;;;;2.55;0.28;;;14.90;99.90;;;;;;4950247;28;20031;-62
2023/10/08 08:56:16;;;;;;;1.63;0.20;;;14.90;99.90;;;;;;4949397;29;20074;-62
2023/10/08 08:58:43;;;;;;;1.35;0.43;;;14.90;99.90;;;;;;4949831;28;20035;-62
2023/10/08 09:01:13;;;;;;;1.05;0.25;;;14.90;99.90;;;;;;4950246;28;20464;-62
2023/10/08 09:03:39;;;;;;;1.08;0.60;;;15.00;99.90;;;;;;4950358;28;20039;-62
2023/10/08 09:06:05;;;;;;;2.97;0.30;;;15.00;99.90;;;;;;4948691;28;20043;-62
2023/10/08 09:08:36;;;;;;;2.15;0.68;;;15.10;99.90;;;;;;4949224;28;20085;-62
2023/10/08 09:11:04;;;;;;;1.52;0.45;;;15.20;99.90;;;;;;4949393;28;20044;-62
2023/10/08 09:13:32;;;;;;;2.10;0.60;;;15.20;99.90;;;;;;4949051;29;20054;-62
2023/10/08 09:16:11;;;;;;;2.53;0.65;;;15.30;99.90;;;;;;4932944;29;20130;-62
2023/10/08 09:18:37;;;;;;;6.30;0.63;;;15.30;99.90;;;;;;4948532;29;20038;-62
2023/10/08 09:21:15;;;;;;;0.15;0.15;;;15.40;99.90;;;;;;4948697;28;20471;-62
2023/10/08 09:23:50;;;;;;;1.67;0.50;;;15.40;99.90;;;;;;4942599;28;20054;-62
2023/10/08 09:26:26;;;;;;;4.30;0.60;;;15.50;99.90;;;;;;4948024;29;20556;-62
2023/10/08 09:28:53;;;;;;;4.28;0.47;;;15.60;99.90;;;;;;4947829;29;20043;-62
2023/10/08 09:31:23;;;;;;;3.33;0.30;;;15.80;99.90;;;;;;4932140;28;20059;-63
2023/10/08 09:33:56;;;;;;;2.70;0.93;;;16.00;99.90;;;;;;4948224;29;20511;-62
2023/10/08 09:36:31;;;;;;;2.33;0.73;;;16.30;99.90;;;;;;4949612;28;20561;-63
2023/10/08 09:39:04;;;;;;;4.72;0.65;;;16.70;99.90;;;;;;4948227;29;20484;-63
2023/10/08 09:41:31;;;;;;;0.10;0.10;;;17.10;99.90;;;;;;4949280;29;20047;-63
2023/10/08 09:43:59;;;;;;;2.20;0.30;;;17.40;99.90;;;;;;4932141;29;20146;-62
2023/10/08 09:46:38;;;;;;;1.67;0.52;;;17.50;99.90;;;;;;4932091;29;20065;-63
2023/10/08 09:49:07;;;;;;;3.80;0.30;;;17.80;99.90;;;;;;4932661;29;20480;-63
2023/10/08 09:51:38;;;;;;;3.30;0.40;;;18.10;99.90;;;;;;4949836;28;20039;-63
2023/10/08 09:54:10;;;;;;;0.75;0.38;;;18.10;99.90;;;;;;4936057;29;20119;-63
2023/10/08 09:56:36;;;;;;;2.83;0.40;;;17.90;99.90;;;;;;4913193;29;20046;-64
2023/10/08 09:59:03;;;;;;;0.85;0.47;;;17.70;99.90;;;;;;4929064;29;20044;-63
2023/10/08 10:01:31;;;;;;;2.55;0.60;;;17.80;99.90;;;;;;4928455;29;20048;-63
2023/10/08 10:04:00;;;;;;;1.55;0.50;;;18.10;99.90;;;;;;4929295;29;20369;-63
2023/10/08 10:06:29;;;;;;;1.48;0.45;;;18.40;99.90;;;;;;4930331;29;20047;-64
2023/10/08 10:08:58;;;;;;;4.03;0.25;;;18.70;99.90;;;;;;4928352;29;20044;-64
2023/10/08 10:11:30;;;;;;;;;;;18.80;99.90;;;;;;4930475;29;20101;-63
2023/10/08 10:14:00;;;;;;;4.18;0.35;;;18.80;99.90;;;;;;4928443;29;20009;-64
2023/10/08 10:16:26;;;;;;;0.43;0.20;;;18.70;99.90;;;;;;4935970;29;20434;-64
2023/10/08 10:18:57;;;;;;;5.20;0.43;;;18.70;99.90;;;;;;4948016;29;20047;-63
2023/10/08 10:21:33;;;;;;;0.47;0.10;;;18.70;99.90;;;;;;4947387;29;20051;-64
2023/10/08 10:24:00;;;;;;;4.05;0.43;;;18.50;99.90;;;;;;4941086;28;20049;-63
2023/10/08 10:26:31;;;;;;;3.95;0.30;;;18.30;99.90;;;;;;4928763;28;20052;-64
2023/10/08 10:29:15;;;;;;;1.35;0.43;;;18.10;99.90;;;;;;4942625;28;20043;-64
2023/10/08 10:31:49;;;;;;;2.78;0.28;;;17.90;99.90;;;;;;4946801;28;20059;-64
2023/10/08 10:34:28;;;;;;;0.65;0.17;;;17.80;99.90;;;;;;4947809;29;20051;-63
2023/10/08 10:36:58;;;;;;;5.30;0.63;;;17.80;99.90;;;;;;4948411;28;20043;-64
2023/10/08 10:39:34;;;;;;;1.17;0.30;;;17.80;99.90;;;;;;4928900;28;20040;-63
2023/10/08 10:42:01;;;;;;;0.10;0.10;;;17.90;99.90;;;;;;4918198;28;20126;-64
2023/10/08 10:44:29;;;;;;;2.60;0.50;;;18.00;99.90;;;;;;4935054;28;20074;-64
2023/10/08 10:47:42;;;;;;;1.13;0.38;;;18.00;99.90;;;;;;4936220;28;20503;-64
2023/10/08 10:49:53;;;;;;;1.70;0.40;;;18.20;99.90;;;;;;4935031;28;20085;-63
2023/10/08 10:52:32;;;;;;;1.63;0.28;;;18.40;99.90;;;;;;4934818;28;20051;-64
2023/10/08 10:57:55;;;;;;;2.50;0.20;;;19.40;99.90;;;;;;4935443;28;20391;-63
2023/10/08 11:00:47;;;;;;;5.15;0.30;;;20.10;99.90;;;;;;4935710;28;20067;-62
2023/10/08 11:03:25;;;;;;;1.10;0.20;;;20.40;99.90;;;;;;4935281;28;20060;-63
2023/10/08 11:06:05;;;;;;;0.73;0.25;;;20.50;99.90;;;;;;4935042;28;20043;-62
2023/10/08 11:08:35;;;;;;;2.67;0.20;;;20.90;99.90;;;;;;4934821;28;20557;-65
2023/10/08 11:11:05;;;;;;;1.60;0.60;;;21.30;99.90;;;;;;4942075;28;20043;-62
2023/10/08 11:13:40;;;;;;;2.30;0.90;;;21.20;99.90;;;;;;4920217;28;20086;-61
2023/10/08 11:16:08;;;;;;;1.02;0.20;;;20.80;99.90;;;;;;4936180;28;20416;-61
2023/10/08 11:18:35;;;;;;;0.70;0.20;;;20.20;99.90;;;;;;4950057;28;20043;-62
2023/10/08 11:21:15;;;;;;;1.55;0.30;;;19.60;99.90;;;;;;4942056;28;20055;-61
2023/10/08 11:23:59;;;;;;;2.72;0.40;;;18.90;99.90;;;;;;4935093;28;20032;-61
2023/10/08 11:26:38;;;;;;;0.60;0.22;;;18.30;99.90;;;;;;4935455;28;20511;-61
2023/10/08 11:29:05;;;;;;;1.75;0.38;;;17.80;99.90;;;;;;4919474;28;20086;-61
2023/10/08 11:31:34;;;;;;;2.33;0.38;;;17.40;99.90;;;;;;4933935;28;20177;-61
2023/10/08 11:34:08;;;;;;;2.33;0.55;;;17.20;99.90;;;;;;4934061;28;20047;-61
2023/10/08 11:36:48;;;;;;;1.58;0.52;;;17.10;99.90;;;;;;4919215;28;20058;-62
2023/10/08 11:39:21;;;;;;;2.33;0.30;;;17.00;99.90;;;;;;4933558;28;20051;-61
2023/10/08 11:42:03;;;;;;;3.97;0.57;;;17.00;99.90;;;;;;4935400;28;20583;-61
2023/10/08 11:44:36;;;;;;;1.52;0.52;;;16.90;99.90;;;;;;4935019;28;20048;-61
2023/10/08 11:47:13;;;;;;;0.43;0.20;;;16.90;99.90;;;;;;4941798;28;20052;-62
2023/10/08 11:49:47;;;;;;;0.10;0.10;;;17.00;99.90;;;;;;4934651;28;20469;-61
2023/10/08 11:52:21;;;;;;;0.43;0.20;;;17.00;99.90;;;;;;4949366;28;20109;-62
2023/10/08 11:54:48;;;;;;;1.58;0.35;;;17.00;99.90;;;;;;4937370;28;20048;-61
2023/10/08 11:57:19;;;;;;;1.02;0.40;;;17.10;99.90;;;;;;4938601;28;20115;-61
2023/10/08 11:59:46;;;;;;;0.77;0.30;;;17.20;99.90;;;;;;4937521;28;20055;-61
2023/10/08 12:02:16;;;;;;;1.17;0.50;;;17.30;99.90;;;;;;4937383;28;20047;-61
2023/10/08 12:04:45;;;;;;;4.05;0.75;;;17.30;99.90;;;;;;4937536;28;20507;-61
2023/10/08 12:07:11;;;;;;;2.83;0.60;;;17.40;99.90;;;;;;4938091;28;20237;-61
2023/10/08 12:09:40;;;;;;;1.92;0.50;;;17.30;99.90;;;;;;4937508;28;20093;-61
2023/10/08 12:12:09;;;;;;;1.13;0.50;;;17.40;99.90;;;;;;4938355;28;20044;-62
2023/10/08 12:14:38;;;;;;;0.65;0.43;;;17.70;99.90;;;;;;4936531;28;20101;-61
2023/10/08 12:17:11;;;;;;;1.48;0.60;;;18.10;99.90;;;;;;4938972;28;20487;-61
2023/10/08 12:19:42;;;;;;;0.20;0.20;;;18.20;99.90;;;;;;4937889;28;20039;-61
2023/10/08 12:22:08;;;;;;;3.65;0.30;;;18.40;99.90;;;;;;4936383;28;20048;-61
2023/10/08 12:24:35;;;;;;;1.30;0.60;;;18.60;99.90;;;;;;4937331;28;20054;-62
2023/10/08 12:27:03;;;;;;;1.08;0.28;;;18.80;99.90;;;;;;4936783;28;20054;-62
2023/10/08 12:29:31;;;;;;;0.55;0.20;;;19.10;99.90;;;;;;4937086;28;20046;-62
2023/10/08 12:31:59;;;;;;;1.83;0.57;;;19.10;99.90;;;;;;4937071;28;20039;-61
2023/10/08 12:34:25;;;;;;;2.50;0.70;;;19.00;99.90;;;;;;4936292;28;20078;-62
2023/10/08 12:36:51;;;;;;;1.13;0.20;;;19.00;99.90;;;;;;4936460;28;20051;-62
2023/10/08 12:39:25;;;;;;;2.65;0.65;;;19.30;99.90;;;;;;4938098;28;20096;-61
2023/10/08 12:41:53;;;;;;;1.65;0.68;;;19.60;99.90;;;;;;4937734;28;20461;-61
2023/10/08 12:44:19;;;;;;;1.77;0.47;;;19.90;99.90;;;;;;4938187;28;20467;-62
2023/10/08 12:46:48;;;;;;;2.33;0.50;;;19.80;99.90;;;;;;4937734;28;20118;-61
2023/10/08 12:49:14;;;;;;;4.05;0.25;;;19.80;99.90;;;;;;4952347;28;20051;-61
2023/10/08 12:51:41;;;;;;;1.20;0.38;;;19.70;99.90;;;;;;4936808;28;20577;-61
2023/10/08 12:54:10;;;;;;;1.05;0.60;;;19.60;99.90;;;;;;4936401;28;20036;-62
2023/10/08 12:56:39;;;;;;;;;;;19.30;99.90;;;;;;4936225;28;20109;-61
2023/10/08 12:59:08;;;;;;;0.93;0.40;;;18.80;99.90;;;;;;4937018;28;19919;-61
2023/10/08 13:01:41;;;;;;;1.88;0.38;;;18.40;99.90;;;;;;4936482;28;20051;-61
2023/10/08 13:04:15;;;;;;;2.33;0.30;;;18.10;99.90;;;;;;4935393;28;20086;-61
2023/10/08 13:06:45;;;;;;;1.25;0.28;;;17.90;99.90;;;;;;4938184;28;20114;-62
2023/10/08 13:09:14;;;;;;;1.45;0.10;;;17.70;99.90;;;;;;4935992;28;20077;-62
2023/10/08 13:11:40;;;;;;;2.90;0.30;;;17.60;99.90;;;;;;4938072;28;20123;-62
2023/10/08 13:14:06;;;;;;;1.40;0.75;;;17.50;99.90;;;;;;4937132;28;20114;-61
2023/10/08 13:16:32;;;;;;;2.25;0.35;;;17.40;99.90;;;;;;4935931;28;20770;-61
2023/10/08 13:18:59;;;;;;;0.75;0.30;;;17.40;99.90;;;;;;4937630;28;20038;-61
2023/10/08 13:21:28;;;;;;;2.35;0.95;;;17.30;99.90;;;;;;4937403;28;20420;-61
2023/10/08 13:23:59;;;;;;;3.40;0.30;;;17.30;99.90;;;;;;4950956;28;20062;-61
2023/10/08 13:26:30;;;;;;;0.40;0.10;;;17.30;99.90;;;;;;4937076;28;20048;-61
2023/10/08 13:28:58;;;;;;;3.08;0.30;;;17.30;99.90;;;;;;4951879;28;20075;-61
2023/10/08 13:31:25;;;;;;;1.33;0.75;;;17.20;99.90;;;;;;4936422;28;20035;-61
2023/10/08 13:33:52;;;;;;;1.90;0.55;;;17.20;99.90;;;;;;4921854;28;20400;-61
2023/10/08 13:36:18;;;;;;;1.17;0.30;;;17.30;99.90;;;;;;4936273;28;20035;-61
2023/10/08 13:38:47;;;;;;;0.40;0.15;;;17.30;99.90;;;;;;4936024;28;20031;-61
2023/10/08 13:41:20;;;;;;;4.32;0.82;;;17.30;99.90;;;;;;4935782;28;20169;-61
2023/10/08 13:43:51;;;;;;;3.35;0.43;;;17.20;99.90;;;;;;4936264;28;20059;-61
2023/10/08 13:46:22;;;;;;;0.28;0.13;;;17.20;99.90;;;;;;4943463;28;20122;-61
2023/10/08 13:48:49;;;;;;;1.52;0.50;;;17.10;99.90;;;;;;4935567;28;20046;-61
2023/10/08 13:51:20;;;;;;;3.97;0.52;;;17.00;99.90;;;;;;4951405;28;20407;-61
2023/10/08 13:53:53;;;;;;;0.70;0.47;;;16.90;99.90;;;;;;4936749;28;20366;-61
2023/10/08 13:56:26;;;;;;;0.43;0.10;;;17.00;99.90;;;;;;4936019;28;20063;-61